sensor_id;sensor_type;location;lat;lon;timestamp;P1;durP1;ratioP1;P2;durP2;ratioP2
13795;SDS011;40911;51.552;9.874;2022-10-03T00:01:33;14.25;;;3.08;;
13795;SDS011;40911;51.552;9.874;2022-10-03T00:04:09;13.50;;;3.13;;
13795;SDS011;40911;51.552;9.874;2022-10-03T00:06:41;12.88;;;3.22;;
13795;SDS011;40911;51.552;9.874;2022-10-03T00:09:20;13.55;;;2.83;;
13795;SDS011;40911;51.552;9.874;2022-10-03T00:11:53;12.65;;;3.13;;
13795;SDS011;40911;51.552;9.874;2022-10-03T00:14:26;13.05;;;3.20;;
13795;SDS011;40911;51.552;9.874;2022-10-03T00:17:00;14.43;;;3.00;;
13795;SDS011;40911;51.552;9.874;2022-10-03T00:19:29;15.63;;;3.30;;
13795;SDS011;40911;51.552;9.874;2022-10-03T00:22:01;14.82;;;3.47;;
13795;SDS011;40911;51.552;9.874;2022-10-03T00:24:40;14.70;;;3.00;;
13795;SDS011;40911;51.552;9.874;2022-10-03T00:27:15;13.07;;;3.55;;
13795;SDS011;40911;51.552;9.874;2022-10-03T00:29:53;14.93;;;3.40;;
13795;SDS011;40911;51.552;9.874;2022-10-03T00:32:25;14.45;;;3.30;;
13795;SDS011;40911;51.552;9.874;2022-10-03T00:35:01;14.35;;;2.72;;
13795;SDS011;40911;51.552;9.874;2022-10-03T00:37:34;14.02;;;3.28;;
13795;SDS011;40911;51.552;9.874;2022-10-03T00:40:09;13.82;;;3.38;;
13795;SDS011;40911;51.552;9.874;2022-10-03T00:45:58;14.63;;;3.45;;
13795;SDS011;40911;51.552;9.874;2022-10-03T00:51:38;18.25;;;3.15;;
13795;SDS011;40911;51.552;9.874;2022-10-03T00:57:21;12.60;;;3.33;;
13795;SDS011;40911;51.552;9.874;2022-10-03T01:00:18;12.20;;;3.15;;
13795;SDS011;40911;51.552;9.874;2022-10-03T01:02:46;11.52;;;3.20;;
13795;SDS011;40911;51.552;9.874;2022-10-03T01:05:24;12.10;;;3.53;;
13795;SDS011;40911;51.552;9.874;2022-10-03T01:08:02;19.10;;;3.20;;
13795;SDS011;40911;51.552;9.874;2022-10-03T01:10:46;14.77;;;3.40;;
13795;SDS011;40911;51.552;9.874;2022-10-03T01:13:23;15.02;;;3.35;;
13795;SDS011;40911;51.552;9.874;2022-10-03T01:15:59;10.73;;;2.83;;
13795;SDS011;40911;51.552;9.874;2022-10-03T01:18:34;13.07;;;3.28;;
13795;SDS011;40911;51.552;9.874;2022-10-03T01:21:10;13.98;;;3.15;;
13795;SDS011;40911;51.552;9.874;2022-10-03T01:26:30;14.32;;;3.65;;
13795;SDS011;40911;51.552;9.874;2022-10-03T01:29:05;12.98;;;3.30;;
13795;SDS011;40911;51.552;9.874;2022-10-03T01:31:50;19.38;;;3.78;;
13795;SDS011;40911;51.552;9.874;2022-10-03T01:34:19;17.00;;;4.15;;
13795;SDS011;40911;51.552;9.874;2022-10-03T01:36:48;12.98;;;3.88;;
13795;SDS011;40911;51.552;9.874;2022-10-03T01:39:24;12.25;;;4.13;;
13795;SDS011;40911;51.552;9.874;2022-10-03T01:41:51;16.63;;;4.20;;
13795;SDS011;40911;51.552;9.874;2022-10-03T01:44:21;14.73;;;4.25;;
13795;SDS011;40911;51.552;9.874;2022-10-03T01:46:51;16.87;;;3.90;;
13795;SDS011;40911;51.552;9.874;2022-10-03T01:49:17;15.93;;;4.25;;
13795;SDS011;40911;51.552;9.874;2022-10-03T01:51:46;17.33;;;4.07;;
13795;SDS011;40911;51.552;9.874;2022-10-03T01:54:15;16.13;;;4.72;;
13795;SDS011;40911;51.552;9.874;2022-10-03T01:56:45;13.15;;;4.40;;
13795;SDS011;40911;51.552;9.874;2022-10-03T01:59:18;19.70;;;4.88;;
13795;SDS011;40911;51.552;9.874;2022-10-03T02:01:51;15.43;;;4.25;;
13795;SDS011;40911;51.552;9.874;2022-10-03T02:04:27;16.70;;;4.53;;
13795;SDS011;40911;51.552;9.874;2022-10-03T02:06:59;15.35;;;5.47;;
13795;SDS011;40911;51.552;9.874;2022-10-03T02:09:28;15.85;;;4.97;;
13795;SDS011;40911;51.552;9.874;2022-10-03T02:12:02;15.43;;;4.80;;
13795;SDS011;40911;51.552;9.874;2022-10-03T02:14:31;15.88;;;4.93;;
13795;SDS011;40911;51.552;9.874;2022-10-03T02:17:02;15.48;;;4.88;;
13795;SDS011;40911;51.552;9.874;2022-10-03T02:19:28;19.23;;;4.80;;
13795;SDS011;40911;51.552;9.874;2022-10-03T02:21:57;19.27;;;4.85;;
13795;SDS011;40911;51.552;9.874;2022-10-03T02:24:28;15.50;;;4.47;;
13795;SDS011;40911;51.552;9.874;2022-10-03T02:30:04;19.60;;;5.43;;
13795;SDS011;40911;51.552;9.874;2022-10-03T02:32:45;14.88;;;4.78;;
13795;SDS011;40911;51.552;9.874;2022-10-03T02:35:42;19.13;;;4.77;;
13795;SDS011;40911;51.552;9.874;2022-10-03T02:53:04;16.65;;;5.28;;
13795;SDS011;40911;51.552;9.874;2022-10-03T02:56:01;14.98;;;5.50;;
13795;SDS011;40911;51.552;9.874;2022-10-03T02:58:41;18.50;;;6.03;;
13795;SDS011;40911;51.552;9.874;2022-10-03T03:07:15;16.58;;;5.95;;
13795;SDS011;40911;51.552;9.874;2022-10-03T03:10:12;22.10;;;5.95;;
13795;SDS011;40911;51.552;9.874;2022-10-03T03:13:04;17.00;;;6.22;;
13795;SDS011;40911;51.552;9.874;2022-10-03T03:18:48;16.77;;;5.70;;
13795;SDS011;40911;51.552;9.874;2022-10-03T03:21:25;17.35;;;5.80;;
13795;SDS011;40911;51.552;9.874;2022-10-03T03:29:41;19.23;;;6.70;;
13795;SDS011;40911;51.552;9.874;2022-10-03T03:32:10;24.73;;;6.47;;
13795;SDS011;40911;51.552;9.874;2022-10-03T03:34:40;19.00;;;5.65;;
13795;SDS011;40911;51.552;9.874;2022-10-03T03:37:12;20.63;;;6.40;;
13795;SDS011;40911;51.552;9.874;2022-10-03T03:39:52;27.50;;;7.13;;
13795;SDS011;40911;51.552;9.874;2022-10-03T03:45:19;24.88;;;6.75;;
13795;SDS011;40911;51.552;9.874;2022-10-03T03:47:55;22.35;;;6.68;;
13795;SDS011;40911;51.552;9.874;2022-10-03T03:50:33;23.20;;;6.90;;
13795;SDS011;40911;51.552;9.874;2022-10-03T03:53:15;20.00;;;7.00;;
13795;SDS011;40911;51.552;9.874;2022-10-03T03:55:58;19.52;;;6.82;;
13795;SDS011;40911;51.552;9.874;2022-10-03T03:58:31;17.35;;;6.47;;
13795;SDS011;40911;51.552;9.874;2022-10-03T04:01:09;20.67;;;7.47;;
13795;SDS011;40911;51.552;9.874;2022-10-03T04:03:48;20.40;;;7.68;;
13795;SDS011;40911;51.552;9.874;2022-10-03T04:06:28;22.77;;;7.70;;
13795;SDS011;40911;51.552;9.874;2022-10-03T04:09:07;19.63;;;7.25;;
13795;SDS011;40911;51.552;9.874;2022-10-03T04:11:49;20.83;;;7.13;;
13795;SDS011;40911;51.552;9.874;2022-10-03T04:14:21;23.98;;;7.22;;
13795;SDS011;40911;51.552;9.874;2022-10-03T04:17:04;21.38;;;7.18;;
13795;SDS011;40911;51.552;9.874;2022-10-03T04:19:58;21.90;;;7.70;;
13795;SDS011;40911;51.552;9.874;2022-10-03T04:22:37;15.18;;;6.53;;
13795;SDS011;40911;51.552;9.874;2022-10-03T04:25:22;17.05;;;7.18;;
13795;SDS011;40911;51.552;9.874;2022-10-03T04:28:04;15.18;;;7.10;;
13795;SDS011;40911;51.552;9.874;2022-10-03T04:30:39;19.02;;;7.32;;
13795;SDS011;40911;51.552;9.874;2022-10-03T04:33:17;24.00;;;7.90;;
13795;SDS011;40911;51.552;9.874;2022-10-03T04:35:51;20.75;;;7.15;;
13795;SDS011;40911;51.552;9.874;2022-10-03T04:38:42;21.83;;;7.28;;
13795;SDS011;40911;51.552;9.874;2022-10-03T04:41:20;17.77;;;7.00;;
13795;SDS011;40911;51.552;9.874;2022-10-03T04:43:53;20.00;;;6.75;;
13795;SDS011;40911;51.552;9.874;2022-10-03T04:46:24;16.77;;;6.93;;
13795;SDS011;40911;51.552;9.874;2022-10-03T04:48:51;17.65;;;7.22;;
13795;SDS011;40911;51.552;9.874;2022-10-03T04:51:33;19.73;;;6.95;;
13795;SDS011;40911;51.552;9.874;2022-10-03T04:54:02;22.15;;;7.13;;
13795;SDS011;40911;51.552;9.874;2022-10-03T04:56:39;23.92;;;7.30;;
13795;SDS011;40911;51.552;9.874;2022-10-03T04:59:18;28.17;;;7.85;;
13795;SDS011;40911;51.552;9.874;2022-10-03T05:01:57;17.83;;;7.28;;
13795;SDS011;40911;51.552;9.874;2022-10-03T05:04:25;20.65;;;7.97;;
13795;SDS011;40911;51.552;9.874;2022-10-03T05:06:56;26.63;;;7.30;;
13795;SDS011;40911;51.552;9.874;2022-10-03T05:09:26;20.77;;;6.97;;
13795;SDS011;40911;51.552;9.874;2022-10-03T05:11:55;21.48;;;7.13;;
13795;SDS011;40911;51.552;9.874;2022-10-03T05:14:30;23.83;;;7.22;;
13795;SDS011;40911;51.552;9.874;2022-10-03T05:17:10;22.40;;;7.03;;
13795;SDS011;40911;51.552;9.874;2022-10-03T05:19:46;19.73;;;6.63;;
13795;SDS011;40911;51.552;9.874;2022-10-03T05:24:52;28.85;;;7.13;;
13795;SDS011;40911;51.552;9.874;2022-10-03T05:27:21;21.15;;;6.30;;
13795;SDS011;40911;51.552;9.874;2022-10-03T05:29:49;24.20;;;6.97;;
13795;SDS011;40911;51.552;9.874;2022-10-03T05:32:22;25.42;;;6.97;;
13795;SDS011;40911;51.552;9.874;2022-10-03T05:34:57;24.03;;;6.80;;
13795;SDS011;40911;51.552;9.874;2022-10-03T05:37:32;21.13;;;6.53;;
13795;SDS011;40911;51.552;9.874;2022-10-03T05:40:06;21.88;;;6.85;;
13795;SDS011;40911;51.552;9.874;2022-10-03T05:42:38;27.80;;;7.72;;
13795;SDS011;40911;51.552;9.874;2022-10-03T05:45:22;18.92;;;6.43;;
13795;SDS011;40911;51.552;9.874;2022-10-03T05:47:50;18.05;;;6.45;;
13795;SDS011;40911;51.552;9.874;2022-10-03T05:50:20;22.65;;;6.70;;
13795;SDS011;40911;51.552;9.874;2022-10-03T05:55:44;16.35;;;6.32;;
13795;SDS011;40911;51.552;9.874;2022-10-03T06:01:29;16.73;;;5.93;;
13795;SDS011;40911;51.552;9.874;2022-10-03T06:04:21;16.38;;;6.22;;
13795;SDS011;40911;51.552;9.874;2022-10-03T06:07:09;12.93;;;5.88;;
13795;SDS011;40911;51.552;9.874;2022-10-03T06:09:43;17.88;;;7.25;;
13795;SDS011;40911;51.552;9.874;2022-10-03T06:12:33;20.67;;;6.70;;
13795;SDS011;40911;51.552;9.874;2022-10-03T06:15:10;22.55;;;7.70;;
13795;SDS011;40911;51.552;9.874;2022-10-03T06:17:54;20.80;;;6.75;;
13795;SDS011;40911;51.552;9.874;2022-10-03T06:23:26;14.55;;;6.35;;
13795;SDS011;40911;51.552;9.874;2022-10-03T06:26:41;15.23;;;6.95;;
13795;SDS011;40911;51.552;9.874;2022-10-03T06:29:26;18.33;;;6.68;;
13795;SDS011;40911;51.552;9.874;2022-10-03T06:44:40;17.30;;;6.75;;
13795;SDS011;40911;51.552;9.874;2022-10-03T06:47:20;19.60;;;8.00;;
13795;SDS011;40911;51.552;9.874;2022-10-03T06:56:01;14.15;;;5.50;;
13795;SDS011;40911;51.552;9.874;2022-10-03T07:01:36;17.60;;;5.55;;
13795;SDS011;40911;51.552;9.874;2022-10-03T07:04:38;17.65;;;6.10;;
13795;SDS011;40911;51.552;9.874;2022-10-03T07:10:30;11.95;;;5.93;;
13795;SDS011;40911;51.552;9.874;2022-10-03T07:13:05;12.23;;;5.90;;
13795;SDS011;40911;51.552;9.874;2022-10-03T07:15:46;13.90;;;5.35;;
13795;SDS011;40911;51.552;9.874;2022-10-03T07:21:35;17.67;;;5.30;;
13795;SDS011;40911;51.552;9.874;2022-10-03T07:24:21;18.30;;;6.38;;
13795;SDS011;40911;51.552;9.874;2022-10-03T07:27:03;13.02;;;5.38;;
13795;SDS011;40911;51.552;9.874;2022-10-03T07:29:42;18.95;;;5.47;;
13795;SDS011;40911;51.552;9.874;2022-10-03T07:35:43;11.95;;;5.18;;
13795;SDS011;40911;51.552;9.874;2022-10-03T07:38:32;14.95;;;5.63;;
13795;SDS011;40911;51.552;9.874;2022-10-03T07:41:39;12.20;;;5.35;;
13795;SDS011;40911;51.552;9.874;2022-10-03T07:44:18;16.75;;;5.47;;
13795;SDS011;40911;51.552;9.874;2022-10-03T07:47:12;16.52;;;6.07;;
13795;SDS011;40911;51.552;9.874;2022-10-03T07:49:57;10.32;;;4.93;;
13795;SDS011;40911;51.552;9.874;2022-10-03T07:52:50;13.05;;;5.45;;
13795;SDS011;40911;51.552;9.874;2022-10-03T07:55:31;14.13;;;5.07;;
13795;SDS011;40911;51.552;9.874;2022-10-03T07:58:15;15.90;;;5.63;;
13795;SDS011;40911;51.552;9.874;2022-10-03T08:00:54;16.35;;;4.88;;
13795;SDS011;40911;51.552;9.874;2022-10-03T08:03:43;17.48;;;5.57;;
13795;SDS011;40911;51.552;9.874;2022-10-03T08:06:28;14.40;;;5.50;;
13795;SDS011;40911;51.552;9.874;2022-10-03T08:14:53;14.05;;;4.68;;
13795;SDS011;40911;51.552;9.874;2022-10-03T08:17:42;17.42;;;5.40;;
13795;SDS011;40911;51.552;9.874;2022-10-03T08:20:32;13.95;;;4.85;;
13795;SDS011;40911;51.552;9.874;2022-10-03T08:26:29;11.52;;;5.10;;
13795;SDS011;40911;51.552;9.874;2022-10-03T08:29:20;10.68;;;4.47;;
13795;SDS011;40911;51.552;9.874;2022-10-03T08:35:01;13.20;;;4.65;;
13795;SDS011;40911;51.552;9.874;2022-10-03T08:40:54;8.52;;;4.30;;
13795;SDS011;40911;51.552;9.874;2022-10-03T08:43:47;11.40;;;4.50;;
13795;SDS011;40911;51.552;9.874;2022-10-03T08:52:24;13.82;;;4.30;;
13795;SDS011;40911;51.552;9.874;2022-10-03T08:54:57;10.27;;;3.95;;
13795;SDS011;40911;51.552;9.874;2022-10-03T09:00:38;6.60;;;3.72;;
13795;SDS011;40911;51.552;9.874;2022-10-03T09:03:34;10.80;;;3.90;;
13795;SDS011;40911;51.552;9.874;2022-10-03T09:06:33;16.58;;;4.57;;
13795;SDS011;40911;51.552;9.874;2022-10-03T09:09:36;11.10;;;3.85;;
13795;SDS011;40911;51.552;9.874;2022-10-03T09:12:30;11.20;;;4.00;;
13795;SDS011;40911;51.552;9.874;2022-10-03T09:15:06;9.57;;;4.03;;
13795;SDS011;40911;51.552;9.874;2022-10-03T09:26:48;7.68;;;3.58;;
13795;SDS011;40911;51.552;9.874;2022-10-03T09:29:22;8.77;;;4.28;;
13795;SDS011;40911;51.552;9.874;2022-10-03T09:38:20;11.73;;;3.65;;
13795;SDS011;40911;51.552;9.874;2022-10-03T09:41:25;13.40;;;3.50;;
13795;SDS011;40911;51.552;9.874;2022-10-03T09:46:51;9.77;;;3.78;;
13795;SDS011;40911;51.552;9.874;2022-10-03T09:52:55;7.57;;;4.32;;
13795;SDS011;40911;51.552;9.874;2022-10-03T09:55:41;9.85;;;3.50;;
13795;SDS011;40911;51.552;9.874;2022-10-03T09:58:26;15.63;;;5.75;;
13795;SDS011;40911;51.552;9.874;2022-10-03T10:01:10;8.98;;;3.95;;
13795;SDS011;40911;51.552;9.874;2022-10-03T10:03:50;7.50;;;3.65;;
13795;SDS011;40911;51.552;9.874;2022-10-03T10:06:43;9.73;;;3.85;;
13795;SDS011;40911;51.552;9.874;2022-10-03T10:09:31;11.10;;;3.50;;
13795;SDS011;40911;51.552;9.874;2022-10-03T10:12:27;8.27;;;3.40;;
13795;SDS011;40911;51.552;9.874;2022-10-03T10:15:23;7.85;;;3.45;;
13795;SDS011;40911;51.552;9.874;2022-10-03T10:18:26;8.77;;;3.47;;
13795;SDS011;40911;51.552;9.874;2022-10-03T10:27:14;6.88;;;3.00;;
13795;SDS011;40911;51.552;9.874;2022-10-03T10:32:51;6.15;;;3.13;;
13795;SDS011;40911;51.552;9.874;2022-10-03T10:57:24;7.20;;;2.50;;
13795;SDS011;40911;51.552;9.874;2022-10-03T11:00:10;9.38;;;2.85;;
13795;SDS011;40911;51.552;9.874;2022-10-03T11:08:43;6.38;;;1.90;;
13795;SDS011;40911;51.552;9.874;2022-10-03T11:11:37;6.40;;;2.50;;
13795;SDS011;40911;51.552;9.874;2022-10-03T11:14:33;7.18;;;2.40;;
13795;SDS011;40911;51.552;9.874;2022-10-03T11:30:02;3.63;;;1.83;;
13795;SDS011;40911;51.552;9.874;2022-10-03T11:38:20;6.13;;;2.20;;
13795;SDS011;40911;51.552;9.874;2022-10-03T11:40:48;6.25;;;1.80;;
13795;SDS011;40911;51.552;9.874;2022-10-03T11:46:20;6.95;;;1.77;;
13795;SDS011;40911;51.552;9.874;2022-10-03T11:48:50;6.63;;;1.67;;
13795;SDS011;40911;51.552;9.874;2022-10-03T11:51:17;8.73;;;1.70;;
13795;SDS011;40911;51.552;9.874;2022-10-03T11:53:47;7.55;;;2.10;;
13795;SDS011;40911;51.552;9.874;2022-10-03T11:56:20;3.25;;;1.60;;
13795;SDS011;40911;51.552;9.874;2022-10-03T11:59:25;4.18;;;1.63;;
13795;SDS011;40911;51.552;9.874;2022-10-03T12:01:59;5.40;;;1.80;;
13795;SDS011;40911;51.552;9.874;2022-10-03T12:04:31;5.22;;;1.70;;
13795;SDS011;40911;51.552;9.874;2022-10-03T12:07:08;5.05;;;1.40;;
13795;SDS011;40911;51.552;9.874;2022-10-03T12:09:59;5.22;;;1.33;;
13795;SDS011;40911;51.552;9.874;2022-10-03T12:12:31;3.95;;;1.45;;
13795;SDS011;40911;51.552;9.874;2022-10-03T12:15:02;5.30;;;1.70;;
13795;SDS011;40911;51.552;9.874;2022-10-03T12:17:37;3.65;;;1.77;;
13795;SDS011;40911;51.552;9.874;2022-10-03T12:20:11;3.65;;;1.67;;
13795;SDS011;40911;51.552;9.874;2022-10-03T12:22:40;3.53;;;1.40;;
13795;SDS011;40911;51.552;9.874;2022-10-03T12:25:15;4.93;;;1.70;;
13795;SDS011;40911;51.552;9.874;2022-10-03T12:27:41;6.60;;;1.50;;
13795;SDS011;40911;51.552;9.874;2022-10-03T12:30:12;4.45;;;1.45;;
13795;SDS011;40911;51.552;9.874;2022-10-03T12:32:39;4.45;;;1.67;;
13795;SDS011;40911;51.552;9.874;2022-10-03T12:35:13;4.47;;;1.70;;
13795;SDS011;40911;51.552;9.874;2022-10-03T12:37:58;3.70;;;1.30;;
13795;SDS011;40911;51.552;9.874;2022-10-03T12:40:28;5.63;;;1.65;;
13795;SDS011;40911;51.552;9.874;2022-10-03T12:43:00;5.18;;;1.67;;
13795;SDS011;40911;51.552;9.874;2022-10-03T12:45:31;4.00;;;1.60;;
13795;SDS011;40911;51.552;9.874;2022-10-03T12:47:59;6.20;;;1.98;;
13795;SDS011;40911;51.552;9.874;2022-10-03T12:50:40;5.55;;;1.70;;
13795;SDS011;40911;51.552;9.874;2022-10-03T12:56:01;5.22;;;1.58;;
13795;SDS011;40911;51.552;9.874;2022-10-03T12:58:28;6.25;;;2.00;;
13795;SDS011;40911;51.552;9.874;2022-10-03T13:00:58;3.63;;;1.50;;
13795;SDS011;40911;51.552;9.874;2022-10-03T13:03:30;4.18;;;1.45;;
13795;SDS011;40911;51.552;9.874;2022-10-03T13:08:48;4.68;;;1.58;;
13795;SDS011;40911;51.552;9.874;2022-10-03T13:11:34;7.20;;;1.63;;
13795;SDS011;40911;51.552;9.874;2022-10-03T13:14:23;3.88;;;1.92;;
13795;SDS011;40911;51.552;9.874;2022-10-03T13:16:54;5.18;;;2.00;;
13795;SDS011;40911;51.552;9.874;2022-10-03T13:19:25;5.75;;;1.75;;
13795;SDS011;40911;51.552;9.874;2022-10-03T13:21:55;5.93;;;1.77;;
13795;SDS011;40911;51.552;9.874;2022-10-03T13:24:30;8.27;;;2.00;;
13795;SDS011;40911;51.552;9.874;2022-10-03T13:26:57;5.00;;;1.80;;
13795;SDS011;40911;51.552;9.874;2022-10-03T13:29:27;5.82;;;1.80;;
13795;SDS011;40911;51.552;9.874;2022-10-03T13:32:06;5.78;;;1.92;;
13795;SDS011;40911;51.552;9.874;2022-10-03T13:34:44;6.22;;;2.00;;
13795;SDS011;40911;51.552;9.874;2022-10-03T13:37:16;5.40;;;2.00;;
13795;SDS011;40911;51.552;9.874;2022-10-03T13:39:45;4.22;;;1.65;;
13795;SDS011;40911;51.552;9.874;2022-10-03T13:42:13;5.28;;;1.80;;
13795;SDS011;40911;51.552;9.874;2022-10-03T13:44:39;5.22;;;1.70;;
13795;SDS011;40911;51.552;9.874;2022-10-03T13:47:10;6.65;;;1.60;;
13795;SDS011;40911;51.552;9.874;2022-10-03T13:49:45;5.47;;;1.90;;
13795;SDS011;40911;51.552;9.874;2022-10-03T13:52:13;7.57;;;2.07;;
13795;SDS011;40911;51.552;9.874;2022-10-03T13:54:47;3.63;;;1.40;;
13795;SDS011;40911;51.552;9.874;2022-10-03T13:57:29;5.03;;;1.70;;
13795;SDS011;40911;51.552;9.874;2022-10-03T13:59:58;4.72;;;2.00;;
13795;SDS011;40911;51.552;9.874;2022-10-03T14:02:34;6.25;;;1.63;;
13795;SDS011;40911;51.552;9.874;2022-10-03T14:05:12;4.93;;;1.60;;
13795;SDS011;40911;51.552;9.874;2022-10-03T14:07:48;6.18;;;1.70;;
13795;SDS011;40911;51.552;9.874;2022-10-03T14:10:24;4.60;;;1.83;;
13795;SDS011;40911;51.552;9.874;2022-10-03T14:13:12;5.57;;;1.75;;
13795;SDS011;40911;51.552;9.874;2022-10-03T14:15:43;4.95;;;1.58;;
13795;SDS011;40911;51.552;9.874;2022-10-03T14:18:15;4.15;;;1.63;;
13795;SDS011;40911;51.552;9.874;2022-10-03T14:23:57;5.05;;;1.92;;
13795;SDS011;40911;51.552;9.874;2022-10-03T14:26:27;6.22;;;1.92;;
13795;SDS011;40911;51.552;9.874;2022-10-03T14:28:54;3.80;;;1.90;;
13795;SDS011;40911;51.552;9.874;2022-10-03T14:31:21;3.38;;;1.77;;
13795;SDS011;40911;51.552;9.874;2022-10-03T14:33:51;7.00;;;1.80;;
13795;SDS011;40911;51.552;9.874;2022-10-03T14:36:23;4.93;;;1.67;;
13795;SDS011;40911;51.552;9.874;2022-10-03T14:39:02;5.35;;;1.80;;
13795;SDS011;40911;51.552;9.874;2022-10-03T14:41:44;5.03;;;1.58;;
13795;SDS011;40911;51.552;9.874;2022-10-03T14:44:09;7.35;;;1.88;;
13795;SDS011;40911;51.552;9.874;2022-10-03T14:46:37;4.47;;;1.85;;
13795;SDS011;40911;51.552;9.874;2022-10-03T14:49:02;6.07;;;1.80;;
13795;SDS011;40911;51.552;9.874;2022-10-03T14:51:29;3.95;;;1.75;;
13795;SDS011;40911;51.552;9.874;2022-10-03T14:53:56;4.18;;;1.65;;
13795;SDS011;40911;51.552;9.874;2022-10-03T14:56:21;4.70;;;1.60;;
13795;SDS011;40911;51.552;9.874;2022-10-03T14:58:45;5.88;;;1.60;;
13795;SDS011;40911;51.552;9.874;2022-10-03T15:01:12;9.02;;;2.05;;
13795;SDS011;40911;51.552;9.874;2022-10-03T15:03:38;4.13;;;1.40;;
13795;SDS011;40911;51.552;9.874;2022-10-03T15:06:17;3.85;;;1.50;;
13795;SDS011;40911;51.552;9.874;2022-10-03T15:08:44;5.32;;;1.60;;
13795;SDS011;40911;51.552;9.874;2022-10-03T15:11:08;5.68;;;2.03;;
13795;SDS011;40911;51.552;9.874;2022-10-03T15:13:34;7.32;;;1.70;;
13795;SDS011;40911;51.552;9.874;2022-10-03T15:15:59;5.30;;;1.63;;
13795;SDS011;40911;51.552;9.874;2022-10-03T15:18:22;4.80;;;2.00;;
13795;SDS011;40911;51.552;9.874;2022-10-03T15:20:45;4.28;;;1.90;;
13795;SDS011;40911;51.552;9.874;2022-10-03T15:23:15;6.60;;;1.67;;
13795;SDS011;40911;51.552;9.874;2022-10-03T15:25:41;7.80;;;1.88;;
13795;SDS011;40911;51.552;9.874;2022-10-03T15:28:04;6.03;;;2.10;;
13795;SDS011;40911;51.552;9.874;2022-10-03T15:30:29;4.18;;;1.70;;
13795;SDS011;40911;51.552;9.874;2022-10-03T15:32:54;5.88;;;1.88;;
13795;SDS011;40911;51.552;9.874;2022-10-03T15:35:27;5.25;;;1.83;;
13795;SDS011;40911;51.552;9.874;2022-10-03T15:37:52;4.82;;;1.98;;
13795;SDS011;40911;51.552;9.874;2022-10-03T15:40:20;4.80;;;1.73;;
13795;SDS011;40911;51.552;9.874;2022-10-03T15:42:46;3.75;;;1.52;;
13795;SDS011;40911;51.552;9.874;2022-10-03T15:45:16;5.35;;;1.90;;
13795;SDS011;40911;51.552;9.874;2022-10-03T15:47:43;7.45;;;1.92;;
13795;SDS011;40911;51.552;9.874;2022-10-03T15:50:11;6.80;;;2.15;;
13795;SDS011;40911;51.552;9.874;2022-10-03T15:52:41;3.10;;;2.05;;
13795;SDS011;40911;51.552;9.874;2022-10-03T15:55:05;7.15;;;2.20;;
13795;SDS011;40911;51.552;9.874;2022-10-03T15:57:29;6.20;;;2.05;;
13795;SDS011;40911;51.552;9.874;2022-10-03T15:59:55;6.10;;;2.30;;
13795;SDS011;40911;51.552;9.874;2022-10-03T16:02:20;6.07;;;2.30;;
13795;SDS011;40911;51.552;9.874;2022-10-03T16:04:46;8.30;;;2.30;;
13795;SDS011;40911;51.552;9.874;2022-10-03T16:07:18;7.50;;;2.03;;
13795;SDS011;40911;51.552;9.874;2022-10-03T16:09:47;3.53;;;1.92;;
13795;SDS011;40911;51.552;9.874;2022-10-03T16:12:22;5.82;;;2.10;;
13795;SDS011;40911;51.552;9.874;2022-10-03T16:15:01;4.30;;;2.10;;
13795;SDS011;40911;51.552;9.874;2022-10-03T16:17:37;6.63;;;2.33;;
13795;SDS011;40911;51.552;9.874;2022-10-03T16:20:08;9.43;;;2.40;;
13795;SDS011;40911;51.552;9.874;2022-10-03T16:22:39;8.05;;;2.47;;
13795;SDS011;40911;51.552;9.874;2022-10-03T16:25:05;9.20;;;2.53;;
13795;SDS011;40911;51.552;9.874;2022-10-03T16:27:30;4.75;;;2.05;;
13795;SDS011;40911;51.552;9.874;2022-10-03T16:30:09;7.15;;;1.95;;
13795;SDS011;40911;51.552;9.874;2022-10-03T16:32:42;4.05;;;1.90;;
13795;SDS011;40911;51.552;9.874;2022-10-03T16:35:12;9.57;;;2.47;;
13795;SDS011;40911;51.552;9.874;2022-10-03T16:37:41;6.18;;;2.08;;
13795;SDS011;40911;51.552;9.874;2022-10-03T16:40:09;7.13;;;2.10;;
13795;SDS011;40911;51.552;9.874;2022-10-03T16:45:04;8.77;;;2.30;;
13795;SDS011;40911;51.552;9.874;2022-10-03T16:47:39;5.20;;;2.22;;
13795;SDS011;40911;51.552;9.874;2022-10-03T16:50:02;3.42;;;2.15;;
13795;SDS011;40911;51.552;9.874;2022-10-03T16:52:44;10.85;;;2.45;;
13795;SDS011;40911;51.552;9.874;2022-10-03T16:55:13;5.90;;;2.17;;
13795;SDS011;40911;51.552;9.874;2022-10-03T16:57:39;6.38;;;2.30;;
13795;SDS011;40911;51.552;9.874;2022-10-03T17:00:05;8.45;;;2.20;;
13795;SDS011;40911;51.552;9.874;2022-10-03T17:02:35;6.82;;;2.20;;
13795;SDS011;40911;51.552;9.874;2022-10-03T17:05:02;5.68;;;2.28;;
13795;SDS011;40911;51.552;9.874;2022-10-03T17:07:26;5.38;;;2.28;;
13795;SDS011;40911;51.552;9.874;2022-10-03T17:09:51;6.30;;;2.47;;
13795;SDS011;40911;51.552;9.874;2022-10-03T17:12:14;5.82;;;2.20;;
13795;SDS011;40911;51.552;9.874;2022-10-03T17:14:39;9.07;;;3.58;;
13795;SDS011;40911;51.552;9.874;2022-10-03T17:17:04;7.80;;;2.28;;
13795;SDS011;40911;51.552;9.874;2022-10-03T17:19:30;5.30;;;2.08;;
13795;SDS011;40911;51.552;9.874;2022-10-03T17:21:59;7.15;;;1.83;;
13795;SDS011;40911;51.552;9.874;2022-10-03T17:24:32;7.97;;;2.35;;
13795;SDS011;40911;51.552;9.874;2022-10-03T17:26:59;8.48;;;2.60;;
13795;SDS011;40911;51.552;9.874;2022-10-03T17:29:25;6.60;;;2.10;;
13795;SDS011;40911;51.552;9.874;2022-10-03T17:31:52;8.80;;;2.50;;
13795;SDS011;40911;51.552;9.874;2022-10-03T17:34:20;6.35;;;2.40;;
13795;SDS011;40911;51.552;9.874;2022-10-03T17:39:41;4.90;;;2.15;;
13795;SDS011;40911;51.552;9.874;2022-10-03T17:42:12;9.68;;;2.30;;
13795;SDS011;40911;51.552;9.874;2022-10-03T17:44:46;5.30;;;2.20;;
13795;SDS011;40911;51.552;9.874;2022-10-03T17:47:17;6.93;;;2.10;;
13795;SDS011;40911;51.552;9.874;2022-10-03T17:49:44;9.65;;;2.00;;
13795;SDS011;40911;51.552;9.874;2022-10-03T17:52:16;6.82;;;2.28;;
13795;SDS011;40911;51.552;9.874;2022-10-03T17:54:40;5.68;;;2.15;;
13795;SDS011;40911;51.552;9.874;2022-10-03T17:57:08;5.53;;;2.03;;
13795;SDS011;40911;51.552;9.874;2022-10-03T17:59:39;9.55;;;2.40;;
13795;SDS011;40911;51.552;9.874;2022-10-03T18:02:12;8.20;;;2.20;;
13795;SDS011;40911;51.552;9.874;2022-10-03T18:04:39;7.38;;;3.03;;
13795;SDS011;40911;51.552;9.874;2022-10-03T18:07:04;5.68;;;2.60;;
13795;SDS011;40911;51.552;9.874;2022-10-03T18:09:33;8.63;;;2.95;;
13795;SDS011;40911;51.552;9.874;2022-10-03T18:14:49;7.95;;;2.83;;
13795;SDS011;40911;51.552;9.874;2022-10-03T18:17:27;7.88;;;2.10;;
13795;SDS011;40911;51.552;9.874;2022-10-03T18:19:59;6.38;;;2.00;;
13795;SDS011;40911;51.552;9.874;2022-10-03T18:22:33;9.52;;;2.08;;
13795;SDS011;40911;51.552;9.874;2022-10-03T18:24:58;8.85;;;2.20;;
13795;SDS011;40911;51.552;9.874;2022-10-03T18:27:57;8.85;;;2.33;;
13795;SDS011;40911;51.552;9.874;2022-10-03T18:30:30;5.97;;;2.35;;
13795;SDS011;40911;51.552;9.874;2022-10-03T18:32:55;8.15;;;2.53;;
13795;SDS011;40911;51.552;9.874;2022-10-03T18:35:19;5.60;;;2.05;;
13795;SDS011;40911;51.552;9.874;2022-10-03T18:37:51;8.30;;;2.20;;
13795;SDS011;40911;51.552;9.874;2022-10-03T18:40:17;5.53;;;2.10;;
13795;SDS011;40911;51.552;9.874;2022-10-03T18:42:41;9.18;;;2.17;;
13795;SDS011;40911;51.552;9.874;2022-10-03T18:45:15;8.80;;;2.20;;
13795;SDS011;40911;51.552;9.874;2022-10-03T18:47:40;8.57;;;2.60;;
13795;SDS011;40911;51.552;9.874;2022-10-03T18:50:12;8.52;;;2.00;;
13795;SDS011;40911;51.552;9.874;2022-10-03T18:52:41;12.50;;;2.10;;
13795;SDS011;40911;51.552;9.874;2022-10-03T18:55:13;3.70;;;1.90;;
13795;SDS011;40911;51.552;9.874;2022-10-03T18:57:41;7.10;;;2.17;;
13795;SDS011;40911;51.552;9.874;2022-10-03T19:00:14;7.75;;;2.00;;